Time;durP1;ratioP1;P1;durP2;ratioP2;P2;SDS_P1;SDS_P2;PMS_P1;PMS_P2;Temp;Humidity;BMP_temperature;BMP_pressure;BME280_temperature;BME280_humidity;BME280_pressure;Samples;Min_cycle;Max_cycle;Signal;HPM_P1;HPM_P2
2022/01/20 00:01:17;;;;;;;4.45;4.05;;;1.90;99.90;;;;;;5106055;27;20534;-59
2022/01/20 00:03:58;;;;;;;3.60;3.30;;;1.90;99.90;;;;;;5106447;27;20915;-59
2022/01/20 00:09:53;;;;;;;4.63;4.32;;;1.80;99.90;;;;;;5086232;27;20551;-58
2022/01/20 00:27:27;;;;;;;4.22;3.92;;;1.60;99.90;;;;;;5126443;27;20536;-59
2022/01/20 00:30:29;;;;;;;4.72;4.32;;;1.50;99.90;;;;;;5148015;27;20535;-59
2022/01/20 00:33:19;;;;;;;4.20;3.90;;;1.50;99.90;;;;;;5147126;27;20881;-59
2022/01/20 00:38:56;;;;;;;4.80;4.45;;;1.50;99.90;;;;;;5085998;28;20683;-59
2022/01/20 00:41:36;;;;;;;4.35;4.05;;;1.40;99.90;;;;;;5106851;27;20530;-59
2022/01/20 00:44:16;;;;;;;4.68;4.28;;;1.40;99.90;;;;;;5086348;28;20656;-58
2022/01/20 00:46:56;;;;;;;4.57;4.28;;;1.40;99.90;;;;;;5068542;27;20595;-59
2022/01/20 00:49:36;;;;;;;4.47;4.18;;;1.40;99.90;;;;;;5104292;27;20562;-59
2022/01/20 00:52:15;;;;;;;4.78;4.43;;;1.40;99.90;;;;;;5114364;27;20594;-59
2022/01/20 00:54:55;;;;;;;4.30;4.00;;;1.40;99.90;;;;;;5126359;27;20536;-57
2022/01/20 00:57:35;;;;;;;4.13;3.85;;;1.40;99.90;;;;;;5106138;27;20546;-59
2022/01/20 01:00:16;;;;;;;4.90;4.57;;;1.40;99.90;;;;;;5147574;27;20542;-58
2022/01/20 01:02:57;;;;;;;4.78;4.38;;;1.40;99.90;;;;;;5147429;27;20539;-59
2022/01/20 01:05:44;;;;;;;4.43;4.13;;;1.40;99.90;;;;;;5086009;27;21064;-59
2022/01/20 01:08:24;;;;;;;4.88;4.55;;;1.30;99.90;;;;;;5085619;27;21092;-59
2022/01/20 01:11:04;;;;;;;4.32;4.03;;;1.30;99.90;;;;;;5086171;27;20527;-59
2022/01/20 01:13:43;;;;;;;4.38;4.07;;;1.30;99.90;;;;;;5086206;28;20664;-59
2022/01/20 01:16:34;;;;;;;4.55;4.05;;;1.30;99.90;;;;;;5147595;27;20680;-59
2022/01/20 01:22:23;;;;;;;4.45;4.15;;;1.30;99.90;;;;;;5162995;27;20533;-58
2022/01/20 01:25:03;;;;;;;4.70;4.40;;;1.30;99.90;;;;;;5086387;28;20679;-59
2022/01/20 01:27:44;;;;;;;4.22;3.92;;;1.30;99.90;;;;;;5106629;27;20583;-58
2022/01/20 01:33:18;;;;;;;4.13;3.83;;;1.30;99.90;;;;;;5127544;27;20943;-59
2022/01/20 01:35:59;;;;;;;4.60;4.05;;;1.30;99.90;;;;;;5106744;27;20665;-58
2022/01/20 01:38:38;;;;;;;4.07;3.78;;;1.30;99.90;;;;;;5107380;27;20681;-58
2022/01/20 01:41:28;;;;;;;3.70;3.47;;;1.30;99.90;;;;;;5086606;28;20647;-59
2022/01/20 01:44:09;;;;;;;3.85;3.55;;;1.30;99.90;;;;;;5148245;27;21141;-58
2022/01/20 01:46:49;;;;;;;3.55;3.35;;;1.30;99.90;;;;;;5106444;27;20546;-59
2022/01/20 01:49:28;;;;;;;4.05;3.75;;;1.30;99.90;;;;;;5106415;27;20554;-59
2022/01/20 01:52:08;;;;;;;3.92;3.60;;;1.30;99.90;;;;;;5086292;28;20659;-59
2022/01/20 01:54:48;;;;;;;3.20;2.95;;;1.30;99.90;;;;;;5106633;27;20538;-59
2022/01/20 01:57:28;;;;;;;3.65;3.40;;;1.30;99.90;;;;;;5106033;27;20665;-58
2022/01/20 02:00:11;;;;;;;3.10;2.90;;;1.30;99.90;;;;;;5086310;28;20663;-59
2022/01/20 02:02:51;;;;;;;3.42;3.22;;;1.40;99.90;;;;;;5086075;28;20680;-59
2022/01/20 02:05:32;;;;;;;3.08;2.88;;;1.30;99.90;;;;;;5081600;28;21222;-59
2022/01/20 02:20:19;;;;;;;2.20;2.10;;;1.40;99.90;;;;;;5084289;28;20696;-59
2022/01/20 02:22:59;;;;;;;2.88;2.67;;;1.30;99.90;;;;;;5085583;28;21129;-59
2022/01/20 02:25:39;;;;;;;3.00;2.80;;;1.30;99.90;;;;;;5100750;27;20563;-59
2022/01/20 02:28:19;;;;;;;3.05;2.85;;;1.30;99.90;;;;;;5100352;27;20591;-59
2022/01/20 02:30:59;;;;;;;2.75;2.55;;;1.30;99.90;;;;;;5085998;28;20687;-59
2022/01/20 02:33:38;;;;;;;2.55;2.35;;;1.30;99.90;;;;;;5085088;28;20675;-58
2022/01/20 02:36:19;;;;;;;2.03;1.92;;;1.30;99.90;;;;;;5085894;28;21212;-59
2022/01/20 02:39:05;;;;;;;1.73;1.63;;;1.30;99.90;;;;;;5085566;28;20676;-59
2022/01/20 02:44:53;;;;;;;2.47;2.28;;;1.30;99.90;;;;;;5077954;27;20582;-59
2022/01/20 02:47:35;;;;;;;1.90;1.80;;;1.30;99.90;;;;;;5083508;28;21211;-59
2022/01/20 02:50:14;;;;;;;2.00;1.90;;;1.30;99.90;;;;;;5126298;27;20556;-59
2022/01/20 02:52:54;;;;;;;1.70;1.60;;;1.30;99.90;;;;;;5099578;27;21445;-59
2022/01/20 02:55:34;;;;;;;1.75;1.65;;;1.30;99.90;;;;;;5115175;27;20554;-59
2022/01/20 02:58:14;;;;;;;2.05;1.95;;;1.30;99.90;;;;;;5117640;27;20562;-59
2022/01/20 03:00:54;;;;;;;2.08;1.98;;;1.30;99.90;;;;;;5085294;27;20561;-59
2022/01/20 03:03:34;;;;;;;1.92;1.83;;;1.30;99.90;;;;;;5106022;27;20550;-59
2022/01/20 03:06:15;;;;;;;1.70;1.60;;;1.30;99.90;;;;;;5086063;27;20671;-58
2022/01/20 03:08:54;;;;;;;1.65;1.55;;;1.30;99.90;;;;;;5124259;27;20564;-59
2022/01/20 03:11:35;;;;;;;2.60;2.40;;;1.30;99.90;;;;;;5067892;27;20545;-59
2022/01/20 03:14:17;;;;;;;3.42;3.13;;;1.30;99.90;;;;;;5085559;27;20907;-58
2022/01/20 03:16:57;;;;;;;2.40;2.20;;;1.30;99.90;;;;;;5085715;28;20648;-59
2022/01/20 03:19:37;;;;;;;1.90;1.70;;;1.30;99.90;;;;;;5106310;27;21048;-59
2022/01/20 03:22:17;;;;;;;1.80;1.65;;;1.30;99.90;;;;;;5106418;27;20665;-59
2022/01/20 03:24:58;;;;;;;1.50;1.40;;;1.30;99.90;;;;;;5125455;27;20922;-59
2022/01/20 03:27:36;;;;;;;1.60;1.38;;;1.20;99.90;;;;;;5106152;27;20557;-59
2022/01/20 03:30:17;;;;;;;2.60;1.35;;;1.20;99.90;;;;;;5147875;27;20583;-59
2022/01/20 03:32:56;;;;;;;1.60;1.50;;;1.20;99.90;;;;;;5086350;28;20684;-59
2022/01/20 03:35:37;;;;;;;1.65;1.55;;;1.20;99.90;;;;;;5148065;27;21054;-59
2022/01/20 03:38:17;;;;;;;2.35;1.40;;;1.20;99.90;;;;;;5086215;27;20561;-58
2022/01/20 03:40:57;;;;;;;2.17;1.98;;;1.10;99.90;;;;;;5095429;27;20619;-59
2022/01/20 03:43:37;;;;;;;2.50;2.35;;;1.10;99.90;;;;;;5080847;27;20551;-59
2022/01/20 03:46:17;;;;;;;3.70;3.40;;;1.10;99.90;;;;;;5102246;27;20561;-59
2022/01/20 03:49:07;;;;;;;2.45;2.25;;;1.00;99.90;;;;;;5065377;28;20721;-58
2022/01/20 03:51:46;;;;;;;2.47;2.38;;;1.10;99.90;;;;;;5115509;27;21077;-59
2022/01/20 03:54:26;;;;;;;1.88;1.77;;;1.10;99.90;;;;;;5103081;27;20557;-59
2022/01/20 03:57:07;;;;;;;1.90;1.75;;;1.10;99.90;;;;;;5085473;27;20539;-59
2022/01/20 03:59:46;;;;;;;1.50;1.40;;;1.10;99.90;;;;;;5084521;27;20552;-59
2022/01/20 04:02:25;;;;;;;1.75;1.65;;;1.10;99.90;;;;;;5117306;27;20560;-59
2022/01/20 04:05:06;;;;;;;2.70;2.50;;;1.20;99.90;;;;;;5133056;27;20691;-59
2022/01/20 04:07:45;;;;;;;3.22;2.47;;;1.30;99.90;;;;;;5105553;27;21393;-59
2022/01/20 04:10:25;;;;;;;1.70;1.60;;;1.30;99.90;;;;;;5085263;27;20933;-58
2022/01/20 04:13:05;;;;;;;1.55;1.45;;;1.30;99.90;;;;;;5085728;27;20539;-59
2022/01/20 04:15:45;;;;;;;1.67;1.58;;;1.30;99.90;;;;;;5106812;27;20959;-59
2022/01/20 04:18:26;;;;;;;1.20;1.20;;;1.40;99.90;;;;;;5079404;27;20560;-59
2022/01/20 04:21:06;;;;;;;1.92;1.60;;;1.40;99.90;;;;;;5080246;27;20544;-59
2022/01/20 04:23:46;;;;;;;1.58;1.48;;;1.40;99.90;;;;;;5099899;27;20559;-59
2022/01/20 04:26:26;;;;;;;1.40;1.30;;;1.40;99.90;;;;;;5101212;27;20570;-59
2022/01/20 04:29:07;;;;;;;1.83;1.70;;;1.40;99.90;;;;;;5158348;27;21027;-59
2022/01/20 04:31:48;;;;;;;1.45;1.23;;;1.40;99.90;;;;;;5140342;27;20987;-59
2022/01/20 04:34:28;;;;;;;3.30;1.48;;;1.50;99.90;;;;;;5072503;27;21097;-59
2022/01/20 04:37:08;;;;;;;1.65;1.42;;;1.40;99.90;;;;;;5104342;27;21143;-59
2022/01/20 04:39:50;;;;;;;1.48;1.38;;;1.40;99.90;;;;;;5145060;27;20669;-59
2022/01/20 04:42:32;;;;;;;1.40;1.30;;;1.40;99.90;;;;;;5117470;27;21029;-59
2022/01/20 04:45:15;;;;;;;1.40;1.10;;;1.50;99.90;;;;;;5147690;27;20543;-59
2022/01/20 04:48:02;;;;;;;1.73;1.63;;;1.50;99.90;;;;;;5138505;27;20701;-59
2022/01/20 04:59:34;;;;;;;1.33;1.23;;;1.40;99.90;;;;;;5121622;27;20600;-59
2022/01/20 05:02:14;;;;;;;1.50;1.40;;;1.30;99.90;;;;;;5090348;27;20684;-59
2022/01/20 05:04:54;;;;;;;1.30;1.20;;;1.20;99.90;;;;;;5105305;27;21198;-57
2022/01/20 05:07:33;;;;;;;2.67;1.25;;;1.10;99.90;;;;;;5103123;27;20541;-59
2022/01/20 05:10:14;;;;;;;1.30;1.20;;;1.00;99.90;;;;;;5085942;28;20588;-59
2022/01/20 05:13:10;;;;;;;1.13;1.02;;;1.10;99.90;;;;;;5147128;27;20825;-59
2022/01/20 05:15:51;;;;;;;1.30;1.17;;;1.10;99.90;;;;;;5126237;27;21076;-59
2022/01/20 05:18:30;;;;;;;1.30;1.20;;;1.10;99.90;;;;;;5085066;27;20937;-58
2022/01/20 05:21:10;;;;;;;1.33;1.23;;;1.10;99.90;;;;;;5106085;27;20662;-59
2022/01/20 05:23:50;;;;;;;1.30;1.20;;;1.20;99.90;;;;;;5143645;27;20684;-59
2022/01/20 05:26:30;;;;;;;1.85;1.30;;;1.20;99.90;;;;;;5134859;27;20552;-59
2022/01/20 05:29:10;;;;;;;1.20;1.10;;;1.30;99.90;;;;;;5063913;27;20573;-59
2022/01/20 05:31:50;;;;;;;1.60;1.33;;;1.30;99.90;;;;;;5073791;28;21200;-59
2022/01/20 05:34:29;;;;;;;2.78;1.40;;;1.30;99.90;;;;;;5084553;28;20683;-59
2022/01/20 05:37:09;;;;;;;1.67;1.20;;;1.30;99.90;;;;;;5123783;27;20552;-59
2022/01/20 05:39:49;;;;;;;1.75;1.50;;;1.30;99.90;;;;;;5067735;28;20584;-59
2022/01/20 05:42:29;;;;;;;1.88;1.77;;;1.30;99.90;;;;;;5097092;27;20694;-59
2022/01/20 05:45:09;;;;;;;2.53;2.33;;;1.30;99.90;;;;;;5105616;27;21194;-59
2022/01/20 05:47:57;;;;;;;3.25;2.97;;;1.30;99.90;;;;;;5121765;27;21174;-58
2022/01/20 05:50:38;;;;;;;1.88;1.77;;;1.30;99.90;;;;;;5105457;27;20553;-58
2022/01/20 05:53:18;;;;;;;1.83;1.73;;;1.30;99.90;;;;;;5076707;28;20681;-59
2022/01/20 05:55:57;;;;;;;1.45;1.30;;;1.40;99.90;;;;;;5084779;28;20680;-59
2022/01/20 05:58:37;;;;;;;1.85;1.75;;;1.40;99.90;;;;;;5134831;27;20681;-59
2022/01/20 06:01:17;;;;;;;1.80;1.70;;;1.40;99.90;;;;;;5081210;28;20671;-60
2022/01/20 06:03:57;;;;;;;1.23;1.10;;;1.50;99.90;;;;;;5085479;28;20876;-58
2022/01/20 06:06:37;;;;;;;1.92;1.58;;;1.50;99.90;;;;;;5105900;27;20566;-59
2022/01/20 06:09:16;;;;;;;1.30;1.17;;;1.50;99.90;;;;;;5080307;28;21092;-59
2022/01/20 06:11:56;;;;;;;1.50;1.40;;;1.30;99.90;;;;;;5101890;27;20565;-59
2022/01/20 06:14:36;;;;;;;1.50;1.40;;;1.10;99.90;;;;;;5084368;27;20931;-60
2022/01/20 06:17:16;;;;;;;1.40;1.30;;;1.10;99.90;;;;;;5084270;28;20668;-59
2022/01/20 06:19:56;;;;;;;1.60;1.50;;;1.00;99.90;;;;;;5085528;28;20556;-59
2022/01/20 06:22:36;;;;;;;3.42;1.60;;;1.00;99.90;;;;;;5106718;27;21199;-59
2022/01/20 06:25:15;;;;;;;2.42;2.22;;;0.90;99.90;;;;;;5100287;27;21131;-59
2022/01/20 06:27:55;;;;;;;7.50;6.80;;;0.90;99.90;;;;;;5083677;27;20563;-59
2022/01/20 06:30:35;;;;;;;5.18;4.68;;;0.90;99.90;;;;;;5141661;27;20558;-59
2022/01/20 06:33:15;;;;;;;3.00;2.50;;;0.90;99.90;;;;;;5121822;27;20687;-58
2022/01/20 06:35:55;;;;;;;3.35;2.30;;;0.90;99.90;;;;;;5085421;27;20621;-58
2022/01/20 06:38:35;;;;;;;3.72;2.60;;;0.80;99.90;;;;;;5104774;27;20553;-58
2022/01/20 06:41:14;;;;;;;5.07;4.60;;;0.60;99.90;;;;;;5122332;27;20559;-58
2022/01/20 06:43:54;;;;;;;3.40;3.10;;;0.40;99.90;;;;;;5095377;27;20699;-59
2022/01/20 06:46:34;;;;;;;3.97;3.67;;;0.00;99.90;;;;;;5085260;27;20573;-59
2022/01/20 06:49:14;;;;;;;3.75;3.45;;;-0.20;99.90;;;;;;5068580;27;20553;-59
2022/01/20 06:51:54;;;;;;;2.80;2.30;;;-0.40;99.90;;;;;;5147446;27;20554;-59
2022/01/20 06:54:34;;;;;;;1.90;1.58;;;-0.60;99.90;;;;;;5106337;27;20562;-58
2022/01/20 06:57:13;;;;;;;1.80;1.70;;;-0.70;99.90;;;;;;5105885;27;20673;-59
2022/01/20 06:59:53;;;;;;;4.82;2.20;;;-0.60;99.90;;;;;;5086381;27;20566;-58
2022/01/20 07:02:33;;;;;;;2.40;2.10;;;-0.60;99.90;;;;;;5086184;27;20540;-59
2022/01/20 07:05:15;;;;;;;1.95;1.55;;;-0.40;99.90;;;;;;5086667;28;20652;-58
2022/01/20 07:07:54;;;;;;;1.70;1.60;;;-0.20;99.90;;;;;;5106162;27;20538;-59
2022/01/20 07:10:34;;;;;;;2.25;2.03;;;0.00;99.90;;;;;;5127284;27;21016;-59
2022/01/20 07:13:14;;;;;;;2.15;1.42;;;0.20;99.90;;;;;;5082568;27;21096;-58
2022/01/20 07:15:54;;;;;;;2.95;1.85;;;0.40;99.90;;;;;;5081419;28;20701;-59
2022/01/20 07:18:34;;;;;;;2.08;1.83;;;0.50;99.90;;;;;;5102263;27;20577;-59
2022/01/20 07:21:13;;;;;;;1.50;1.40;;;0.60;99.90;;;;;;5083514;27;20564;-58
2022/01/20 07:23:53;;;;;;;2.72;2.05;;;0.70;99.90;;;;;;5144627;27;21031;-59
2022/01/20 07:26:33;;;;;;;3.28;2.03;;;0.80;99.90;;;;;;5084866;28;20672;-59
2022/01/20 07:29:13;;;;;;;2.90;2.00;;;0.80;99.90;;;;;;5109253;27;20682;-59
2022/01/20 07:31:53;;;;;;;3.97;2.25;;;0.90;99.90;;;;;;5106147;27;20934;-58
2022/01/20 07:34:33;;;;;;;3.20;1.70;;;1.00;99.90;;;;;;5113304;27;20548;-58
2022/01/20 07:37:12;;;;;;;4.47;1.85;;;1.00;99.90;;;;;;5072201;28;21023;-58
2022/01/20 07:39:53;;;;;;;2.13;1.85;;;1.10;99.90;;;;;;5121720;27;20544;-58
2022/01/20 07:42:32;;;;;;;2.15;1.95;;;1.10;99.90;;;;;;5105749;27;20610;-58
2022/01/20 07:45:12;;;;;;;3.38;2.20;;;1.20;99.90;;;;;;5083246;27;20581;-59
2022/01/20 07:47:52;;;;;;;5.28;3.17;;;1.30;99.90;;;;;;5084582;28;20680;-58
2022/01/20 07:50:32;;;;;;;3.08;2.30;;;1.50;99.90;;;;;;5091301;27;20581;-58
2022/01/20 07:53:11;;;;;;;2.90;1.95;;;1.50;99.90;;;;;;5138858;27;20657;-58
2022/01/20 07:55:52;;;;;;;2.78;1.98;;;1.60;99.90;;;;;;5115977;27;20548;-59
2022/01/20 07:58:31;;;;;;;4.10;1.88;;;1.80;99.90;;;;;;5085396;27;21168;-59
2022/01/20 08:01:11;;;;;;;5.32;2.17;;;1.80;99.90;;;;;;5126012;27;20893;-59
2022/01/20 08:03:51;;;;;;;3.00;2.63;;;1.90;99.90;;;;;;5085373;27;20558;-58
2022/01/20 08:06:30;;;;;;;3.40;2.15;;;2.00;99.90;;;;;;5085626;27;21025;-59
2022/01/20 08:09:10;;;;;;;3.45;2.45;;;2.00;99.90;;;;;;5083750;28;20691;-58
2022/01/20 08:11:50;;;;;;;6.47;1.98;;;2.10;99.90;;;;;;5123872;27;20672;-59
2022/01/20 08:14:30;;;;;;;2.20;1.85;;;2.20;99.90;;;;;;5140733;27;20661;-59
2022/01/20 08:17:10;;;;;;;5.15;2.75;;;2.20;99.90;;;;;;5085583;28;20675;-58
2022/01/20 08:19:50;;;;;;;3.92;2.00;;;2.20;99.90;;;;;;5085481;28;21188;-58
2022/01/20 08:22:33;;;;;;;3.67;2.00;;;2.30;99.90;;;;;;5081664;27;20690;-58
2022/01/20 08:25:15;;;;;;;4.40;2.92;;;2.30;99.90;;;;;;5146573;27;20669;-58
2022/01/20 08:27:54;;;;;;;3.67;1.95;;;2.30;99.90;;;;;;5079215;27;20553;-58
2022/01/20 08:30:34;;;;;;;3.05;2.00;;;2.30;99.90;;;;;;5085858;28;21307;-59
2022/01/20 08:33:14;;;;;;;4.13;2.42;;;2.40;99.90;;;;;;5147500;27;20542;-59
2022/01/20 08:35:53;;;;;;;5.65;2.20;;;2.40;99.90;;;;;;5100871;27;20562;-58
2022/01/20 08:38:33;;;;;;;2.88;2.00;;;2.40;99.90;;;;;;5114885;27;20550;-59
2022/01/20 08:41:13;;;;;;;4.30;1.90;;;2.40;99.90;;;;;;5125298;27;20936;-59
2022/01/20 08:43:53;;;;;;;2.63;1.98;;;2.40;99.90;;;;;;5146582;27;20570;-59
2022/01/20 08:46:33;;;;;;;5.18;1.73;;;2.40;99.90;;;;;;5086312;28;20539;-58
2022/01/20 08:49:12;;;;;;;5.25;1.80;;;2.40;99.90;;;;;;5085643;28;20601;-58
2022/01/20 08:51:53;;;;;;;5.15;1.98;;;2.40;99.90;;;;;;5147428;27;20538;-59
2022/01/20 08:54:34;;;;;;;5.90;2.05;;;2.40;99.90;;;;;;5126840;27;21080;-59
2022/01/20 08:57:14;;;;;;;7.30;1.90;;;2.40;99.90;;;;;;5126181;27;20544;-59
2022/01/20 08:59:54;;;;;;;5.68;1.85;;;2.50;99.90;;;;;;5085873;27;20552;-58
2022/01/20 09:02:33;;;;;;;4.18;2.03;;;2.70;99.90;;;;;;5085752;28;20660;-58
2022/01/20 09:05:13;;;;;;;1.92;1.67;;;2.80;99.90;;;;;;5085729;28;21039;-58
2022/01/20 09:07:53;;;;;;;5.07;2.10;;;2.90;99.90;;;;;;5100166;27;20687;-58
2022/01/20 09:10:39;;;;;;;3.53;1.80;;;3.10;99.90;;;;;;5106178;27;20537;-58
2022/01/20 09:16:16;;;;;;;3.22;1.67;;;3.20;99.90;;;;;;5098217;27;20668;-58
2022/01/20 09:18:56;;;;;;;3.83;2.03;;;3.20;99.90;;;;;;5123090;27;20544;-59
2022/01/20 09:21:38;;;;;;;5.10;2.50;;;3.30;99.90;;;;;;5085928;28;20676;-58
2022/01/20 09:24:17;;;;;;;5.00;1.88;;;3.40;99.90;;;;;;5082148;27;20980;-58
2022/01/20 09:26:57;;;;;;;3.65;1.85;;;3.50;99.90;;;;;;5104788;27;20557;-58
2022/01/20 09:29:37;;;;;;;4.15;2.13;;;3.60;99.90;;;;;;5083147;27;20556;-58
2022/01/20 09:32:19;;;;;;;5.13;2.13;;;3.60;99.90;;;;;;5118505;27;20550;-58
2022/01/20 09:34:58;;;;;;;4.63;2.28;;;3.40;99.90;;;;;;5086096;28;20675;-58
2022/01/20 09:37:40;;;;;;;5.57;2.00;;;3.40;99.90;;;;;;5079932;27;20565;-59
2022/01/20 09:40:20;;;;;;;4.00;1.83;;;3.50;99.90;;;;;;5132168;27;20585;-58
2022/01/20 09:43:00;;;;;;;4.18;1.85;;;3.60;99.90;;;;;;5085354;28;20585;-59
2022/01/20 09:45:40;;;;;;;4.63;2.53;;;3.60;99.90;;;;;;5147600;27;20531;-59
2022/01/20 09:48:19;;;;;;;3.70;1.77;;;3.50;99.90;;;;;;5147041;27;20768;-58
2022/01/20 09:51:00;;;;;;;2.10;1.70;;;3.60;99.90;;;;;;5106397;27;20564;-58
2022/01/20 09:53:40;;;;;;;6.63;1.77;;;3.90;99.90;;;;;;5119145;27;20583;-58
2022/01/20 09:56:20;;;;;;;2.70;1.48;;;4.50;99.90;;;;;;5102406;27;20959;-58
2022/01/20 09:59:00;;;;;;;4.22;2.05;;;5.00;99.90;;;;;;5085301;27;21079;-58
2022/01/20 10:01:42;;;;;;;6.07;2.20;;;5.30;99.90;;;;;;5084678;27;21072;-58
2022/01/20 10:04:24;;;;;;;2.47;1.55;;;5.50;99.90;;;;;;5103294;27;20538;-58
2022/01/20 10:07:08;;;;;;;3.03;1.77;;;5.60;99.90;;;;;;5126298;27;20671;-58
2022/01/20 10:09:49;;;;;;;3.08;1.65;;;5.70;99.90;;;;;;5126467;27;20540;-58
2022/01/20 10:12:33;;;;;;;4.78;1.83;;;5.70;99.90;;;;;;5082057;27;21140;-58
2022/01/20 10:15:13;;;;;;;3.83;1.33;;;5.70;99.90;;;;;;5128386;27;20539;-58
2022/01/20 10:18:05;;;;;;;5.20;1.85;;;5.60;99.90;;;;;;5123286;27;20556;-57
2022/01/20 10:20:56;;;;;;;5.18;1.83;;;5.30;99.90;;;;;;5106022;27;20591;-58
2022/01/20 10:23:38;;;;;;;2.95;1.40;;;5.00;99.90;;;;;;5126460;27;20528;-57
2022/01/20 10:26:20;;;;;;;4.28;1.92;;;4.70;99.90;;;;;;5086172;27;20535;-58
2022/01/20 10:29:02;;;;;;;2.75;1.52;;;4.60;99.90;;;;;;5085974;28;20676;-58
2022/01/20 10:31:43;;;;;;;4.00;1.33;;;4.50;99.90;;;;;;5085730;28;20668;-58
2022/01/20 10:34:30;;;;;;;2.60;1.50;;;4.40;99.90;;;;;;5081321;27;20581;-58
2022/01/20 10:37:14;;;;;;;3.38;1.75;;;4.00;99.90;;;;;;5143392;27;20554;-58
2022/01/20 10:39:53;;;;;;;1.23;0.73;;;3.50;99.90;;;;;;5105484;27;21020;-59
2022/01/20 10:42:37;;;;;;;2.00;0.75;;;2.10;99.90;;;;;;5106113;27;20546;-59
2022/01/20 10:45:22;;;;;;;3.53;0.28;;;0.70;99.90;;;;;;5081379;27;20630;-59
2022/01/20 10:48:02;;;;;;;1.00;0.22;;;0.40;99.90;;;;;;5112021;27;20852;-59
2022/01/20 10:50:41;;;;;;;0.63;0.28;;;0.30;99.90;;;;;;5084474;27;20553;-58
2022/01/20 10:53:22;;;;;;;1.05;0.15;;;0.30;99.90;;;;;;5080180;27;20551;-59
2022/01/20 10:56:07;;;;;;;1.08;0.43;;;0.40;99.90;;;;;;5109190;27;20553;-59
2022/01/20 10:58:46;;;;;;;7.15;0.73;;;0.60;99.90;;;;;;5125877;27;20559;-58
2022/01/20 11:01:26;;;;;;;0.30;0.20;;;1.20;99.90;;;;;;5084120;28;21031;-58
2022/01/20 11:04:08;;;;;;;1.25;0.90;;;2.00;99.90;;;;;;5099691;27;20759;-58
2022/01/20 11:06:52;;;;;;;3.40;0.50;;;2.50;99.90;;;;;;5144270;27;20949;-58
2022/01/20 11:09:36;;;;;;;1.38;0.77;;;2.70;99.90;;;;;;5103622;27;21216;-58
2022/01/20 11:12:17;;;;;;;3.20;0.70;;;2.70;99.90;;;;;;5069194;27;20578;-58
2022/01/20 11:15:00;;;;;;;1.35;0.60;;;2.90;99.90;;;;;;5105175;27;20633;-58
2022/01/20 11:17:41;;;;;;;1.58;0.90;;;3.00;99.90;;;;;;5126004;27;20668;-57
2022/01/20 11:20:24;;;;;;;1.02;0.85;;;3.10;99.90;;;;;;5104247;27;20537;-58
2022/01/20 11:23:05;;;;;;;3.58;1.00;;;3.00;99.90;;;;;;5105553;27;20545;-58
2022/01/20 11:25:45;;;;;;;3.45;1.00;;;3.00;99.90;;;;;;5105461;27;20533;-59
2022/01/20 11:28:25;;;;;;;0.95;0.63;;;3.20;99.90;;;;;;5105973;27;20561;-58
2022/01/20 11:31:08;;;;;;;1.60;0.82;;;3.40;99.90;;;;;;5063029;27;20594;-58
2022/01/20 11:33:49;;;;;;;1.05;0.95;;;3.50;99.90;;;;;;5138830;27;21021;-58
2022/01/20 11:36:31;;;;;;;1.50;0.80;;;3.70;99.90;;;;;;5118898;27;20545;-58
2022/01/20 11:39:12;;;;;;;1.92;1.10;;;3.70;99.90;;;;;;5068081;27;20549;-57
2022/01/20 11:41:52;;;;;;;2.40;0.90;;;3.60;99.90;;;;;;5083897;27;20684;-58
2022/01/20 11:44:34;;;;;;;1.88;1.00;;;3.40;99.90;;;;;;5139941;27;20669;-58
2022/01/20 11:47:14;;;;;;;2.58;1.00;;;3.30;99.90;;;;;;5084281;27;20593;-58
2022/01/20 11:49:54;;;;;;;5.90;1.02;;;3.70;99.90;;;;;;5105340;27;20595;-58
2022/01/20 11:52:33;;;;;;;4.53;1.67;;;3.80;99.90;;;;;;5145281;27;20555;-58
2022/01/20 11:55:16;;;;;;;3.13;1.23;;;3.80;99.90;;;;;;5083748;27;20594;-58
2022/01/20 11:57:56;;;;;;;1.58;0.93;;;3.60;99.90;;;;;;5084112;27;20599;-58
2022/01/20 12:00:36;;;;;;;3.20;1.20;;;3.30;99.90;;;;;;5105622;27;20674;-58
2022/01/20 12:03:16;;;;;;;5.13;1.77;;;3.40;99.90;;;;;;5138510;27;20544;-58
2022/01/20 12:06:00;;;;;;;5.38;1.30;;;3.50;99.90;;;;;;5145225;27;20546;-58
2022/01/20 12:08:53;;;;;;;2.60;1.17;;;3.30;99.90;;;;;;5093302;27;20700;-58
2022/01/20 12:11:39;;;;;;;2.17;0.82;;;3.10;99.90;;;;;;5131772;27;20546;-57
2022/01/20 12:14:34;;;;;;;2.55;0.93;;;3.30;99.90;;;;;;5125023;27;20711;-58
2022/01/20 12:17:15;;;;;;;3.55;1.60;;;3.70;99.90;;;;;;5124334;27;20544;-58
2022/01/20 12:19:56;;;;;;;3.10;1.10;;;4.20;99.90;;;;;;5139537;27;21071;-58
2022/01/20 12:22:40;;;;;;;2.97;1.00;;;4.30;99.90;;;;;;5117736;27;20998;-58
2022/01/20 12:25:22;;;;;;;4.00;0.98;;;4.10;99.90;;;;;;5118071;27;20536;-58
2022/01/20 12:28:05;;;;;;;2.67;1.10;;;3.80;99.90;;;;;;5147425;27;20546;-58
2022/01/20 12:30:48;;;;;;;2.20;0.85;;;3.80;99.90;;;;;;5085864;27;21038;-58
2022/01/20 12:33:28;;;;;;;1.48;0.77;;;3.80;99.90;;;;;;5082901;27;20591;-58
2022/01/20 12:36:13;;;;;;;4.80;1.42;;;3.70;99.90;;;;;;5135223;27;20598;-58
2022/01/20 12:38:54;;;;;;;2.00;1.02;;;3.60;99.90;;;;;;5091520;27;20555;-58
2022/01/20 12:41:34;;;;;;;1.55;0.68;;;3.70;99.90;;;;;;5141434;27;20573;-58
2022/01/20 12:44:15;;;;;;;2.10;0.80;;;3.70;99.90;;;;;;5084961;28;20597;-59
2022/01/20 12:46:54;;;;;;;1.77;0.77;;;3.80;99.90;;;;;;5085741;27;20554;-58
2022/01/20 12:49:34;;;;;;;5.50;1.20;;;4.00;99.90;;;;;;5085841;28;20759;-58
2022/01/20 12:52:14;;;;;;;2.80;0.98;;;4.20;99.90;;;;;;5086194;27;20995;-58
2022/01/20 12:54:54;;;;;;;2.95;1.00;;;4.30;99.90;;;;;;5127089;27;20679;-58
2022/01/20 12:57:33;;;;;;;4.40;0.90;;;4.30;99.90;;;;;;5125819;27;20536;-58
2022/01/20 13:00:14;;;;;;;1.65;0.90;;;4.20;99.90;;;;;;5085729;27;20535;-58
2022/01/20 13:02:53;;;;;;;2.83;0.90;;;3.80;99.90;;;;;;5080936;27;20567;-58
2022/01/20 13:05:40;;;;;;;3.85;1.40;;;3.70;99.90;;;;;;5105579;27;21194;-58
2022/01/20 13:08:25;;;;;;;2.28;0.70;;;3.60;99.90;;;;;;5084853;27;20559;-58
2022/01/20 13:11:06;;;;;;;2.05;0.90;;;3.60;99.90;;;;;;5126706;27;20532;-58
2022/01/20 13:13:54;;;;;;;1.98;1.05;;;3.60;99.90;;;;;;5086323;28;20680;-58
2022/01/20 13:16:35;;;;;;;2.13;0.82;;;3.40;99.90;;;;;;5102951;27;21196;-58
2022/01/20 13:19:14;;;;;;;1.65;1.10;;;3.50;99.90;;;;;;5075805;27;21149;-58
2022/01/20 13:21:54;;;;;;;3.20;1.00;;;3.70;99.90;;;;;;5084930;28;20543;-58
2022/01/20 13:24:35;;;;;;;4.20;1.38;;;3.80;99.90;;;;;;5104790;27;20674;-58
2022/01/20 13:27:15;;;;;;;2.40;1.10;;;3.10;99.90;;;;;;5084737;28;20663;-58
2022/01/20 13:29:55;;;;;;;2.85;1.13;;;2.40;99.90;;;;;;5106073;27;20630;-58
2022/01/20 13:32:36;;;;;;;2.30;1.00;;;2.10;99.90;;;;;;5126257;27;20544;-59
2022/01/20 13:35:15;;;;;;;2.17;1.20;;;1.90;99.90;;;;;;5105754;27;20591;-59
2022/01/20 13:38:04;;;;;;;3.08;1.10;;;1.90;99.90;;;;;;5100005;27;21049;-58
2022/01/20 13:40:47;;;;;;;5.90;1.13;;;1.80;99.90;;;;;;5105927;27;20550;-58
2022/01/20 13:46:23;;;;;;;4.40;1.23;;;1.80;99.90;;;;;;5085890;27;20557;-58
2022/01/20 13:49:10;;;;;;;1.75;0.82;;;2.00;99.90;;;;;;5061210;28;20576;-58
2022/01/20 13:51:59;;;;;;;5.72;1.02;;;2.40;99.90;;;;;;5085938;28;20671;-58
2022/01/20 13:54:44;;;;;;;1.20;0.82;;;2.60;99.90;;;;;;5085603;28;20676;-58
2022/01/20 13:57:35;;;;;;;3.13;1.00;;;2.60;99.90;;;;;;5084463;27;20549;-58
2022/01/20 14:00:16;;;;;;;2.88;1.15;;;2.50;99.90;;;;;;5085374;28;20663;-58
2022/01/20 14:02:56;;;;;;;2.10;0.93;;;2.30;99.90;;;;;;5157767;27;20911;-58
2022/01/20 14:05:36;;;;;;;2.88;1.00;;;2.20;99.90;;;;;;5085581;27;20557;-58
2022/01/20 14:08:15;;;;;;;1.00;0.50;;;2.00;99.90;;;;;;5080448;27;20687;-59
2022/01/20 14:10:56;;;;;;;1.95;1.10;;;1.80;99.90;;;;;;5106154;27;20548;-57
2022/01/20 14:13:35;;;;;;;5.35;1.33;;;1.70;99.90;;;;;;5085834;27;20664;-59
2022/01/20 14:16:15;;;;;;;2.67;1.02;;;1.60;99.90;;;;;;5106079;27;21132;-59
2022/01/20 14:18:57;;;;;;;2.97;1.20;;;1.20;99.90;;;;;;5097504;27;20549;-58
2022/01/20 14:21:38;;;;;;;4.40;1.10;;;0.80;99.90;;;;;;5078678;28;20695;-59
2022/01/20 14:24:17;;;;;;;3.22;0.98;;;0.60;99.90;;;;;;5084033;28;20704;-59
2022/01/20 14:27:08;;;;;;;3.65;1.08;;;0.50;99.90;;;;;;5084105;27;20567;-58
2022/01/20 14:29:48;;;;;;;4.85;1.52;;;0.60;99.90;;;;;;5105300;27;20566;-59
2022/01/20 14:32:28;;;;;;;4.15;1.60;;;0.90;99.90;;;;;;5064411;28;20734;-59
2022/01/20 14:35:09;;;;;;;3.63;1.40;;;1.00;99.90;;;;;;5082700;27;20555;-59
2022/01/20 14:37:48;;;;;;;13.23;1.38;;;1.20;99.90;;;;;;5104744;27;20550;-59
2022/01/20 14:40:28;;;;;;;1.02;0.60;;;1.10;99.90;;;;;;5085988;28;20668;-58
2022/01/20 14:43:07;;;;;;;3.35;1.00;;;0.90;99.90;;;;;;5105481;27;20538;-59
2022/01/20 14:45:47;;;;;;;1.92;0.50;;;0.80;99.90;;;;;;5106442;27;20534;-58
2022/01/20 14:48:28;;;;;;;1.02;0.50;;;0.60;99.90;;;;;;5105161;27;21234;-59
2022/01/20 14:51:09;;;;;;;1.58;0.93;;;0.40;99.90;;;;;;5106292;27;20685;-59
2022/01/20 14:53:48;;;;;;;1.60;0.65;;;0.10;99.90;;;;;;5085566;28;20671;-59
2022/01/20 14:56:29;;;;;;;3.75;0.77;;;-0.20;99.90;;;;;;5105694;27;20538;-59
2022/01/20 14:59:08;;;;;;;1.45;0.85;;;-0.40;99.90;;;;;;5085683;27;21109;-58
2022/01/20 15:02:00;;;;;;;5.00;1.40;;;-0.60;99.90;;;;;;5084002;22;21098;-61
2022/01/20 15:04:39;;;;;;;2.65;1.10;;;-0.80;99.90;;;;;;5082651;27;20594;-61
2022/01/20 15:07:20;;;;;;;4.20;1.45;;;-0.90;99.90;;;;;;5114017;27;20679;-61